sensor_id;sensor_type;location;lat;lon;timestamp;pressure;altitude;pressure_sealevel;temperature
70435;BMP280;57876;47.792;12.960;2022-07-05T00:01:57;97124.75;;;20.18
70435;BMP280;57876;47.792;12.960;2022-07-05T00:04:22;97126.75;;;20.18
70435;BMP280;57876;47.792;12.960;2022-07-05T00:06:46;97122.00;;;20.18
70435;BMP280;57876;47.792;12.960;2022-07-05T00:09:29;97129.50;;;20.18
70435;BMP280;57876;47.792;12.960;2022-07-05T00:11:54;97115.75;;;20.18
70435;BMP280;57876;47.792;12.960;2022-07-05T00:14:18;97114.47;;;20.19
70435;BMP280;57876;47.792;12.960;2022-07-05T00:16:43;97113.75;;;20.18
70435;BMP280;57876;47.792;12.960;2022-07-05T00:19:07;97105.50;;;20.18
70435;BMP280;57876;47.792;12.960;2022-07-05T00:21:31;97111.72;;;20.19
70435;BMP280;57876;47.792;12.960;2022-07-05T00:23:56;97098.59;;;20.17
70435;BMP280;57876;47.792;12.960;2022-07-05T00:26:20;97103.47;;;20.19
70435;BMP280;57876;47.792;12.960;2022-07-05T00:28:44;97101.47;;;20.19
70435;BMP280;57876;47.792;12.960;2022-07-05T00:31:09;97104.78;;;20.18
70435;BMP280;57876;47.792;12.960;2022-07-05T00:33:33;97095.84;;;20.17
70435;BMP280;57876;47.792;12.960;2022-07-05T00:35:57;97100.03;;;20.18
70435;BMP280;57876;47.792;12.960;2022-07-05T00:38:22;97105.50;;;20.18
70435;BMP280;57876;47.792;12.960;2022-07-05T00:40:47;97099.28;;;20.18
70435;BMP280;57876;47.792;12.960;2022-07-05T00:43:12;97097.28;;;20.18
70435;BMP280;57876;47.792;12.960;2022-07-05T00:45:36;97098.59;;;20.17
70435;BMP280;57876;47.792;12.960;2022-07-05T00:48:01;97102.78;;;20.18
70435;BMP280;57876;47.792;12.960;2022-07-05T00:50:25;97095.09;;;20.17
70435;BMP280;57876;47.792;12.960;2022-07-05T00:52:53;97094.53;;;20.18
70435;BMP280;57876;47.792;12.960;2022-07-05T00:55:18;97090.34;;;20.17
70435;BMP280;57876;47.792;12.960;2022-07-05T00:57:42;97086.88;;;20.17
70435;BMP280;57876;47.792;12.960;2022-07-05T01:00:07;97097.84;;;20.17
70435;BMP280;57876;47.792;12.960;2022-07-05T01:02:32;97097.97;;;20.19
70435;BMP280;57876;47.792;12.960;2022-07-05T01:04:57;97101.34;;;20.17
70435;BMP280;57876;47.792;12.960;2022-07-05T01:07:22;97106.84;;;20.17
70435;BMP280;57876;47.792;12.960;2022-07-05T01:09:48;97104.09;;;20.17
70435;BMP280;57876;47.792;12.960;2022-07-05T01:12:13;97108.97;;;20.19
70435;BMP280;57876;47.792;12.960;2022-07-05T01:14:37;97101.34;;;20.17
70435;BMP280;57876;47.792;12.960;2022-07-05T01:17:02;97103.34;;;20.17
70435;BMP280;57876;47.792;12.960;2022-07-05T01:19:27;97095.09;;;20.17
70435;BMP280;57876;47.792;12.960;2022-07-05T01:21:51;97100.59;;;20.17
70435;BMP280;57876;47.792;12.960;2022-07-05T01:24:17;97095.84;;;20.17
70435;BMP280;57876;47.792;12.960;2022-07-05T01:26:44;97095.09;;;20.17
70435;BMP280;57876;47.792;12.960;2022-07-05T01:29:09;97098.44;;;20.15
70435;BMP280;57876;47.792;12.960;2022-07-05T01:31:37;97090.34;;;20.17
70435;BMP280;57876;47.792;12.960;2022-07-05T01:34:02;97088.16;;;20.16
70435;BMP280;57876;47.792;12.960;2022-07-05T01:36:26;97096.41;;;20.16
70435;BMP280;57876;47.792;12.960;2022-07-05T01:38:51;97104.09;;;20.17
70435;BMP280;57876;47.792;12.960;2022-07-05T01:41:15;97105.38;;;20.16
70435;BMP280;57876;47.792;12.960;2022-07-05T01:43:40;97106.09;;;20.17
70435;BMP280;57876;47.792;12.960;2022-07-05T01:46:05;97100.59;;;20.17
70435;BMP280;57876;47.792;12.960;2022-07-05T01:48:32;97102.63;;;20.16
70435;BMP280;57876;47.792;12.960;2022-07-05T01:51:09;97104.09;;;20.17
70435;BMP280;57876;47.792;12.960;2022-07-05T01:53:39;97108.13;;;20.16
70435;BMP280;57876;47.792;12.960;2022-07-05T01:56:05;97110.13;;;20.16
70435;BMP280;57876;47.792;12.960;2022-07-05T01:58:30;97111.59;;;20.17
70435;BMP280;57876;47.792;12.960;2022-07-05T02:00:56;97116.38;;;20.16
70435;BMP280;57876;47.792;12.960;2022-07-05T02:03:22;97119.84;;;20.17
70435;BMP280;57876;47.792;12.960;2022-07-05T02:05:47;97119.84;;;20.17
70435;BMP280;57876;47.792;12.960;2022-07-05T02:08:14;97118.38;;;20.16
70435;BMP280;57876;47.792;12.960;2022-07-05T02:10:39;97125.91;;;20.15
70435;BMP280;57876;47.792;12.960;2022-07-05T02:13:04;97130.13;;;20.16
70435;BMP280;57876;47.792;12.960;2022-07-05T02:15:33;97121.88;;;20.16
70435;BMP280;57876;47.792;12.960;2022-07-05T02:17:58;97130.13;;;20.16
70435;BMP280;57876;47.792;12.960;2022-07-05T02:20:22;97128.66;;;20.15
70435;BMP280;57876;47.792;12.960;2022-07-05T02:22:46;97128.06;;;20.17
70435;BMP280;57876;47.792;12.960;2022-07-05T02:25:11;97130.13;;;20.16
70435;BMP280;57876;47.792;12.960;2022-07-05T02:27:35;97129.38;;;20.16
70435;BMP280;57876;47.792;12.960;2022-07-05T02:29:59;97121.13;;;20.16
70435;BMP280;57876;47.792;12.960;2022-07-05T02:32:24;97126.63;;;20.16
70435;BMP280;57876;47.792;12.960;2022-07-05T02:34:48;97123.88;;;20.16
70435;BMP280;57876;47.792;12.960;2022-07-05T02:37:13;97121.88;;;20.16
70435;BMP280;57876;47.792;12.960;2022-07-05T02:39:37;97114.94;;;20.15
70435;BMP280;57876;47.792;12.960;2022-07-05T02:42:02;97123.16;;;20.15
70435;BMP280;57876;47.792;12.960;2022-07-05T02:44:26;97117.66;;;20.15
70435;BMP280;57876;47.792;12.960;2022-07-05T02:46:51;97121.88;;;20.16
70435;BMP280;57876;47.792;12.960;2022-07-05T02:49:16;97117.66;;;20.15
70435;BMP280;57876;47.792;12.960;2022-07-05T02:51:40;97119.69;;;20.15
70435;BMP280;57876;47.792;12.960;2022-07-05T02:54:04;97125.91;;;20.15
70435;BMP280;57876;47.792;12.960;2022-07-05T02:56:29;97121.13;;;20.16
70435;BMP280;57876;47.792;12.960;2022-07-05T02:58:53;97120.41;;;20.15
70435;BMP280;57876;47.792;12.960;2022-07-05T03:01:17;97128.66;;;20.15
70435;BMP280;57876;47.792;12.960;2022-07-05T03:03:42;97123.16;;;20.15
70435;BMP280;57876;47.792;12.960;2022-07-05T03:06:06;97124.63;;;20.16
70435;BMP280;57876;47.792;12.960;2022-07-05T03:08:31;97124.44;;;20.14
70435;BMP280;57876;47.792;12.960;2022-07-05T03:10:55;97123.88;;;20.16
70435;BMP280;57876;47.792;12.960;2022-07-05T03:13:20;97127.91;;;20.15
70435;BMP280;57876;47.792;12.960;2022-07-05T03:15:44;97127.91;;;20.15
70435;BMP280;57876;47.792;12.960;2022-07-05T03:18:08;97125.19;;;20.15
70435;BMP280;57876;47.792;12.960;2022-07-05T03:20:33;97134.16;;;20.15
70435;BMP280;57876;47.792;12.960;2022-07-05T03:22:58;97138.91;;;20.15
70435;BMP280;57876;47.792;12.960;2022-07-05T03:25:22;97143.13;;;20.16
70435;BMP280;57876;47.792;12.960;2022-07-05T03:27:47;97138.91;;;20.15
70435;BMP280;57876;47.792;12.960;2022-07-05T03:30:11;97139.66;;;20.15
70435;BMP280;57876;47.792;12.960;2022-07-05T03:32:36;97132.69;;;20.14
70435;BMP280;57876;47.792;12.960;2022-07-05T03:35:00;97132.13;;;20.16
70435;BMP280;57876;47.792;12.960;2022-07-05T03:37:24;97122.44;;;20.15
70435;BMP280;57876;47.792;12.960;2022-07-05T03:39:49;97132.69;;;20.14
70435;BMP280;57876;47.792;12.960;2022-07-05T03:42:13;97135.41;;;20.14
70435;BMP280;57876;47.792;12.960;2022-07-05T03:44:37;97133.41;;;20.15
70435;BMP280;57876;47.792;12.960;2022-07-05T03:47:02;97132.69;;;20.14
70435;BMP280;57876;47.792;12.960;2022-07-05T03:49:27;97145.16;;;20.15
70435;BMP280;57876;47.792;12.960;2022-07-05T03:51:52;97138.16;;;20.14
70435;BMP280;57876;47.792;12.960;2022-07-05T03:54:16;97138.91;;;20.15
70435;BMP280;57876;47.792;12.960;2022-07-05T03:56:40;97143.13;;;20.16
70435;BMP280;57876;47.792;12.960;2022-07-05T03:59:05;97138.91;;;20.15
70435;BMP280;57876;47.792;12.960;2022-07-05T04:01:29;97140.91;;;20.14
70435;BMP280;57876;47.792;12.960;2022-07-05T04:03:54;97138.16;;;20.14
70435;BMP280;57876;47.792;12.960;2022-07-05T04:06:18;97137.47;;;20.14
70435;BMP280;57876;47.792;12.960;2022-07-05T04:08:43;97140.91;;;20.14
70435;BMP280;57876;47.792;12.960;2022-07-05T04:11:07;97145.69;;;20.14
70435;BMP280;57876;47.792;12.960;2022-07-05T04:13:33;97146.41;;;20.14
70435;BMP280;57876;47.792;12.960;2022-07-05T04:15:57;97147.16;;;20.15
70435;BMP280;57876;47.792;12.960;2022-07-05T04:18:22;97159.44;;;20.14
70435;BMP280;57876;47.792;12.960;2022-07-05T04:20:46;97151.91;;;20.14
70435;BMP280;57876;47.792;12.960;2022-07-05T04:23:11;97147.72;;;20.13
70435;BMP280;57876;47.792;12.960;2022-07-05T04:25:35;97151.19;;;20.14
70435;BMP280;57876;47.792;12.960;2022-07-05T04:28:00;97145.69;;;20.14
70435;BMP280;57876;47.792;12.960;2022-07-05T04:30:25;97148.44;;;20.14
70435;BMP280;57876;47.792;12.960;2022-07-05T04:32:50;97154.66;;;20.14
70435;BMP280;57876;47.792;12.960;2022-07-05T04:35:15;97154.66;;;20.14
70435;BMP280;57876;47.792;12.960;2022-07-05T04:37:39;97152.66;;;20.15
70435;BMP280;57876;47.792;12.960;2022-07-05T04:40:06;97149.91;;;20.15
70435;BMP280;57876;47.792;12.960;2022-07-05T04:42:30;97157.41;;;20.14
70435;BMP280;57876;47.792;12.960;2022-07-05T04:44:55;97159.44;;;20.14
70435;BMP280;57876;47.792;12.960;2022-07-05T04:47:19;97160.16;;;20.14
70435;BMP280;57876;47.792;12.960;2022-07-05T04:49:44;97165.66;;;20.14
70435;BMP280;57876;47.792;12.960;2022-07-05T04:52:08;97158.16;;;20.15
70435;BMP280;57876;47.792;12.960;2022-07-05T04:54:32;97160.88;;;20.15
70435;BMP280;57876;47.792;12.960;2022-07-05T04:56:57;97159.44;;;20.14
70435;BMP280;57876;47.792;12.960;2022-07-05T04:59:21;97169.88;;;20.15
70435;BMP280;57876;47.792;12.960;2022-07-05T05:01:46;97168.41;;;20.14
70435;BMP280;57876;47.792;12.960;2022-07-05T05:04:10;97160.16;;;20.14
70435;BMP280;57876;47.792;12.960;2022-07-05T05:06:34;97166.94;;;20.13
70435;BMP280;57876;47.792;12.960;2022-07-05T05:08:59;97173.88;;;20.14
70435;BMP280;57876;47.792;12.960;2022-07-05T05:11:23;97168.41;;;20.14
70435;BMP280;57876;47.792;12.960;2022-07-05T05:13:47;97167.69;;;20.14
70435;BMP280;57876;47.792;12.960;2022-07-05T05:16:12;97160.16;;;20.14
70435;BMP280;57876;47.792;12.960;2022-07-05T05:18:37;97162.19;;;20.14
70435;BMP280;57876;47.792;12.960;2022-07-05T05:21:01;97168.41;;;20.14
70435;BMP280;57876;47.792;12.960;2022-07-05T05:23:25;97166.94;;;20.13
70435;BMP280;57876;47.792;12.960;2022-07-05T05:25:50;97172.44;;;20.13
70435;BMP280;57876;47.792;12.960;2022-07-05T05:28:14;97173.19;;;20.14
70435;BMP280;57876;47.792;12.960;2022-07-05T05:30:39;97168.41;;;20.14
70435;BMP280;57876;47.792;12.960;2022-07-05T05:33:03;97169.00;;;20.13
70435;BMP280;57876;47.792;12.960;2022-07-05T05:35:27;97166.94;;;20.13
70435;BMP280;57876;47.792;12.960;2022-07-05T05:37:53;97164.94;;;20.14
70435;BMP280;57876;47.792;12.960;2022-07-05T05:40:19;97168.41;;;20.14
70435;BMP280;57876;47.792;12.960;2022-07-05T05:42:44;97167.69;;;20.14
70435;BMP280;57876;47.792;12.960;2022-07-05T05:45:09;97167.69;;;20.14
70435;BMP280;57876;47.792;12.960;2022-07-05T05:47:33;97173.19;;;20.14
70435;BMP280;57876;47.792;12.960;2022-07-05T05:49:58;97173.88;;;20.14
70435;BMP280;57876;47.792;12.960;2022-07-05T05:52:22;97173.19;;;20.14
70435;BMP280;57876;47.792;12.960;2022-07-05T05:54:46;97171.13;;;20.14
70435;BMP280;57876;47.792;12.960;2022-07-05T05:57:11;97178.13;;;20.15
70435;BMP280;57876;47.792;12.960;2022-07-05T05:59:35;97176.63;;;20.14
70435;BMP280;57876;47.792;12.960;2022-07-05T06:01:59;97177.38;;;20.15
70435;BMP280;57876;47.792;12.960;2022-07-05T06:04:24;97171.13;;;20.14
70435;BMP280;57876;47.792;12.960;2022-07-05T06:06:48;97177.38;;;20.15
70435;BMP280;57876;47.792;12.960;2022-07-05T06:09:12;97178.66;;;20.14
70435;BMP280;57876;47.792;12.960;2022-07-05T06:11:37;97173.19;;;20.14
70435;BMP280;57876;47.792;12.960;2022-07-05T06:14:01;97173.88;;;20.14
70435;BMP280;57876;47.792;12.960;2022-07-05T06:16:26;97174.63;;;20.15
70435;BMP280;57876;47.792;12.960;2022-07-05T06:18:50;97173.88;;;20.14
70435;BMP280;57876;47.792;12.960;2022-07-05T06:21:14;97174.63;;;20.15
70435;BMP280;57876;47.792;12.960;2022-07-05T06:23:39;97185.63;;;20.15
70435;BMP280;57876;47.792;12.960;2022-07-05T06:26:03;97180.13;;;20.15
70435;BMP280;57876;47.792;12.960;2022-07-05T06:28:27;97183.63;;;20.15
70435;BMP280;57876;47.792;12.960;2022-07-05T06:30:52;97182.88;;;20.15
70435;BMP280;57876;47.792;12.960;2022-07-05T06:33:17;97184.31;;;20.16
70435;BMP280;57876;47.792;12.960;2022-07-05T06:35:41;97180.88;;;20.15
70435;BMP280;57876;47.792;12.960;2022-07-05T06:38:07;97184.88;;;20.14
70435;BMP280;57876;47.792;12.960;2022-07-05T06:40:33;97185.63;;;20.15
70435;BMP280;57876;47.792;12.960;2022-07-05T06:43:00;97183.63;;;20.15
70435;BMP280;57876;47.792;12.960;2022-07-05T06:45:26;97179.38;;;20.14
70435;BMP280;57876;47.792;12.960;2022-07-05T06:47:57;97174.63;;;20.15
70435;BMP280;57876;47.792;12.960;2022-07-05T06:50:22;97190.56;;;20.16
70435;BMP280;57876;47.792;12.960;2022-07-05T06:52:46;97189.81;;;20.16
70435;BMP280;57876;47.792;12.960;2022-07-05T06:55:10;97187.81;;;20.16
70435;BMP280;57876;47.792;12.960;2022-07-05T06:57:35;97189.25;;;20.17
70435;BMP280;57876;47.792;12.960;2022-07-05T06:59:59;97189.25;;;20.17
70435;BMP280;57876;47.792;12.960;2022-07-05T07:02:24;97201.69;;;20.18
70435;BMP280;57876;47.792;12.960;2022-07-05T07:04:49;97192.00;;;20.17
70435;BMP280;57876;47.792;12.960;2022-07-05T07:07:13;97196.19;;;20.18
70435;BMP280;57876;47.792;12.960;2022-07-05T07:10:01;97194.16;;;20.19
70435;BMP280;57876;47.792;12.960;2022-07-05T07:12:25;97189.94;;;20.18
70435;BMP280;57876;47.792;12.960;2022-07-05T07:14:50;97196.91;;;20.19
70435;BMP280;57876;47.792;12.960;2022-07-05T07:17:14;97207.88;;;20.19
70435;BMP280;57876;47.792;12.960;2022-07-05T07:19:39;97205.88;;;20.19
70435;BMP280;57876;47.792;12.960;2022-07-05T07:22:03;97205.88;;;20.19
70435;BMP280;57876;47.792;12.960;2022-07-05T07:24:28;97208.63;;;20.19
70435;BMP280;57876;47.792;12.960;2022-07-05T07:26:52;97205.88;;;20.19
70435;BMP280;57876;47.792;12.960;2022-07-05T07:29:36;97200.38;;;20.19
70435;BMP280;57876;47.792;12.960;2022-07-05T07:32:02;97199.78;;;20.21
70435;BMP280;57876;47.792;12.960;2022-07-05T07:34:27;97206.72;;;20.22
70435;BMP280;57876;47.792;12.960;2022-07-05T07:36:52;97206.72;;;20.22
70435;BMP280;57876;47.792;12.960;2022-07-05T07:39:17;97200.53;;;20.21
70435;BMP280;57876;47.792;12.960;2022-07-05T07:41:41;97200.53;;;20.21
70435;BMP280;57876;47.792;12.960;2022-07-05T07:44:06;97203.97;;;20.22
70435;BMP280;57876;47.792;12.960;2022-07-05T07:46:30;97203.97;;;20.22
70435;BMP280;57876;47.792;12.960;2022-07-05T07:48:55;97203.41;;;20.23
70435;BMP280;57876;47.792;12.960;2022-07-05T07:51:19;97208.91;;;20.23
70435;BMP280;57876;47.792;12.960;2022-07-05T07:53:45;97210.38;;;20.24
70435;BMP280;57876;47.792;12.960;2022-07-05T07:56:09;97195.19;;;20.23
70435;BMP280;57876;47.792;12.960;2022-07-05T07:58:34;97197.91;;;20.23
70435;BMP280;57876;47.792;12.960;2022-07-05T08:00:58;97187.66;;;20.24
70435;BMP280;57876;47.792;12.960;2022-07-05T08:03:23;97195.34;;;20.25
70435;BMP280;57876;47.792;12.960;2022-07-05T08:05:47;97185.63;;;20.24
70435;BMP280;57876;47.792;12.960;2022-07-05T08:08:11;97191.13;;;20.24
70435;BMP280;57876;47.792;12.960;2022-07-05T08:10:36;97198.06;;;20.25
70435;BMP280;57876;47.792;12.960;2022-07-05T08:13:00;97193.16;;;20.24
70435;BMP280;57876;47.792;12.960;2022-07-05T08:15:26;97196.03;;;20.26
70435;BMP280;57876;47.792;12.960;2022-07-05T08:17:50;97199.50;;;20.26
70435;BMP280;57876;47.792;12.960;2022-07-05T08:20:33;97194.75;;;20.27
70435;BMP280;57876;47.792;12.960;2022-07-05T08:23:16;97197.50;;;20.27
70435;BMP280;57876;47.792;12.960;2022-07-05T08:25:40;97195.47;;;20.27
70435;BMP280;57876;47.792;12.960;2022-07-05T08:28:04;97193.44;;;20.28
70435;BMP280;57876;47.792;12.960;2022-07-05T08:30:29;97199.66;;;20.28
70435;BMP280;57876;47.792;12.960;2022-07-05T08:32:53;97194.16;;;20.28
70435;BMP280;57876;47.792;12.960;2022-07-05T08:35:18;97200.41;;;20.29
70435;BMP280;57876;47.792;12.960;2022-07-05T08:37:42;97204.56;;;20.30
70435;BMP280;57876;47.792;12.960;2022-07-05T08:40:08;97202.41;;;20.28
70435;BMP280;57876;47.792;12.960;2022-07-05T08:42:32;97194.31;;;20.30
70435;BMP280;57876;47.792;12.960;2022-07-05T08:44:58;97199.66;;;20.28
70435;BMP280;57876;47.792;12.960;2022-07-05T08:47:23;97196.91;;;20.28
70435;BMP280;57876;47.792;12.960;2022-07-05T08:49:47;97196.91;;;20.28
70435;BMP280;57876;47.792;12.960;2022-07-05T08:52:12;97196.91;;;20.28
70435;BMP280;57876;47.792;12.960;2022-07-05T08:54:37;97193.44;;;20.28
70435;BMP280;57876;47.792;12.960;2022-07-05T08:57:02;97202.41;;;20.28
70435;BMP280;57876;47.792;12.960;2022-07-05T08:59:26;97205.16;;;20.28
70435;BMP280;57876;47.792;12.960;2022-07-05T09:01:52;97207.91;;;20.28
70435;BMP280;57876;47.792;12.960;2022-07-05T09:04:17;97194.91;;;20.29
70435;BMP280;57876;47.792;12.960;2022-07-05T09:06:41;97198.38;;;20.29
70435;BMP280;57876;47.792;12.960;2022-07-05T09:09:08;97194.16;;;20.28
70435;BMP280;57876;47.792;12.960;2022-07-05T09:11:40;97187.94;;;20.28
70435;BMP280;57876;47.792;12.960;2022-07-05T09:14:07;97198.94;;;20.28
70435;BMP280;57876;47.792;12.960;2022-07-05T09:16:42;97203.69;;;20.27
70435;BMP280;57876;47.792;12.960;2022-07-05T09:19:07;97190.69;;;20.28
70435;BMP280;57876;47.792;12.960;2022-07-05T09:21:31;97192.72;;;20.27
70435;BMP280;57876;47.792;12.960;2022-07-05T09:26:40;97189.97;;;20.27
70435;BMP280;57876;47.792;12.960;2022-07-05T09:29:16;97194.00;;;20.26
70435;BMP280;57876;47.792;12.960;2022-07-05T09:31:43;97189.25;;;20.27
70435;BMP280;57876;47.792;12.960;2022-07-05T09:34:28;97187.22;;;20.27
70435;BMP280;57876;47.792;12.960;2022-07-05T09:37:00;97177.53;;;20.26
70435;BMP280;57876;47.792;12.960;2022-07-05T09:42:14;97178.84;;;20.25
70435;BMP280;57876;47.792;12.960;2022-07-05T09:44:43;97181.59;;;20.25
70435;BMP280;57876;47.792;12.960;2022-07-05T09:47:16;97180.13;;;20.24
70435;BMP280;57876;47.792;12.960;2022-07-05T09:49:51;97185.63;;;20.24
70435;BMP280;57876;47.792;12.960;2022-07-05T09:55:06;97191.25;;;20.26
70435;BMP280;57876;47.792;12.960;2022-07-05T09:57:33;97183.63;;;20.25
70435;BMP280;57876;47.792;12.960;2022-07-05T10:00:08;97189.84;;;20.25
70435;BMP280;57876;47.792;12.960;2022-07-05T10:02:51;97189.13;;;20.25
70435;BMP280;57876;47.792;12.960;2022-07-05T10:05:23;97193.88;;;20.24
70435;BMP280;57876;47.792;12.960;2022-07-05T10:07:49;97187.78;;;20.26
70435;BMP280;57876;47.792;12.960;2022-07-05T10:10:22;97194.00;;;20.26
70435;BMP280;57876;47.792;12.960;2022-07-05T10:12:48;97191.25;;;20.26
70435;BMP280;57876;47.792;12.960;2022-07-05T10:15:17;97184.34;;;20.25
70435;BMP280;57876;47.792;12.960;2022-07-05T10:17:47;97187.22;;;20.27
70435;BMP280;57876;47.792;12.960;2022-07-05T10:20:19;97178.97;;;20.27
70435;BMP280;57876;47.792;12.960;2022-07-05T10:22:46;97183.00;;;20.26
70435;BMP280;57876;47.792;12.960;2022-07-05T10:25:11;97181.00;;;20.27
70435;BMP280;57876;47.792;12.960;2022-07-05T10:27:36;97184.47;;;20.27
70435;BMP280;57876;47.792;12.960;2022-07-05T10:30:03;97173.34;;;20.25
70435;BMP280;57876;47.792;12.960;2022-07-05T10:32:28;97188.50;;;20.26
70435;BMP280;57876;47.792;12.960;2022-07-05T10:34:53;97184.34;;;20.25
70435;BMP280;57876;47.792;12.960;2022-07-05T10:37:18;97192.59;;;20.25
70435;BMP280;57876;47.792;12.960;2022-07-05T10:39:43;97179.56;;;20.26
70435;BMP280;57876;47.792;12.960;2022-07-05T10:42:07;97170.59;;;20.25
70435;BMP280;57876;47.792;12.960;2022-07-05T10:44:33;97177.53;;;20.26
70435;BMP280;57876;47.792;12.960;2022-07-05T10:47:08;97184.34;;;20.25
70435;BMP280;57876;47.792;12.960;2022-07-05T10:49:36;97178.84;;;20.25
70435;BMP280;57876;47.792;12.960;2022-07-05T10:52:01;97180.13;;;20.24
70435;BMP280;57876;47.792;12.960;2022-07-05T10:54:25;97182.16;;;20.24
70435;BMP280;57876;47.792;12.960;2022-07-05T10:57:24;97184.19;;;20.23
70435;BMP280;57876;47.792;12.960;2022-07-05T11:00:08;97182.88;;;20.24
70435;BMP280;57876;47.792;12.960;2022-07-05T11:02:33;97172.47;;;20.23
70435;BMP280;57876;47.792;12.960;2022-07-05T11:04:58;97175.94;;;20.23
70435;BMP280;57876;47.792;12.960;2022-07-05T11:08:00;97175.22;;;20.23
70435;BMP280;57876;47.792;12.960;2022-07-05T11:10:29;97165.69;;;20.24
70435;BMP280;57876;47.792;12.960;2022-07-05T11:12:55;97177.38;;;20.24
70435;BMP280;57876;47.792;12.960;2022-07-05T11:15:20;97174.63;;;20.24
70435;BMP280;57876;47.792;12.960;2022-07-05T11:17:44;97178.84;;;20.25
70435;BMP280;57876;47.792;12.960;2022-07-05T11:20:13;97167.84;;;20.25
70435;BMP280;57876;47.792;12.960;2022-07-05T11:22:39;97176.09;;;20.25
70435;BMP280;57876;47.792;12.960;2022-07-05T11:25:06;97170.59;;;20.25
70435;BMP280;57876;47.792;12.960;2022-07-05T11:27:30;97169.16;;;20.24
70435;BMP280;57876;47.792;12.960;2022-07-05T11:29:56;97161.66;;;20.25
70435;BMP280;57876;47.792;12.960;2022-07-05T11:34:55;97158.91;;;20.25
70435;BMP280;57876;47.792;12.960;2022-07-05T11:37:23;97162.34;;;20.25
70435;BMP280;57876;47.792;12.960;2022-07-05T11:42:49;97153.41;;;20.25
70435;BMP280;57876;47.792;12.960;2022-07-05T11:45:14;97154.13;;;20.25
70435;BMP280;57876;47.792;12.960;2022-07-05T11:47:38;97159.59;;;20.25
70435;BMP280;57876;47.792;12.960;2022-07-05T11:50:03;97148.63;;;20.25
70435;BMP280;57876;47.792;12.960;2022-07-05T11:52:29;97149.91;;;20.24
70435;BMP280;57876;47.792;12.960;2022-07-05T11:54:56;97149.19;;;20.24
70435;BMP280;57876;47.792;12.960;2022-07-05T11:57:20;97153.41;;;20.25
70435;BMP280;57876;47.792;12.960;2022-07-05T11:59:45;97150.03;;;20.26
70435;BMP280;57876;47.792;12.960;2022-07-05T12:02:09;97145.16;;;20.25
70435;BMP280;57876;47.792;12.960;2022-07-05T12:04:34;97151.38;;;20.25
70435;BMP280;57876;47.792;12.960;2022-07-05T12:06:58;97145.16;;;20.25
70435;BMP280;57876;47.792;12.960;2022-07-05T12:09:25;97149.91;;;20.24
70435;BMP280;57876;47.792;12.960;2022-07-05T12:11:51;97142.41;;;20.25
70435;BMP280;57876;47.792;12.960;2022-07-05T12:14:33;97151.94;;;20.24
70435;BMP280;57876;47.792;12.960;2022-07-05T12:17:15;97148.47;;;20.23
70435;BMP280;57876;47.792;12.960;2022-07-05T12:19:40;97154.69;;;20.24
70435;BMP280;57876;47.792;12.960;2022-07-05T12:22:04;97154.69;;;20.24
70435;BMP280;57876;47.792;12.960;2022-07-05T12:24:29;97160.75;;;20.22
70435;BMP280;57876;47.792;12.960;2022-07-05T12:26:53;97153.97;;;20.23
70435;BMP280;57876;47.792;12.960;2022-07-05T12:29:18;97141.50;;;20.22
70435;BMP280;57876;47.792;12.960;2022-07-05T12:32:04;97142.97;;;20.23
70435;BMP280;57876;47.792;12.960;2022-07-05T12:34:32;97142.97;;;20.23
70435;BMP280;57876;47.792;12.960;2022-07-05T12:36:57;97147.16;;;20.24
70435;BMP280;57876;47.792;12.960;2022-07-05T12:39:22;97148.47;;;20.23
70435;BMP280;57876;47.792;12.960;2022-07-05T12:41:47;97146.44;;;20.24
70435;BMP280;57876;47.792;12.960;2022-07-05T12:44:11;97147.75;;;20.23
70435;BMP280;57876;47.792;12.960;2022-07-05T12:46:37;97156.72;;;20.23
70435;BMP280;57876;47.792;12.960;2022-07-05T12:49:01;97160.75;;;20.22
70435;BMP280;57876;47.792;12.960;2022-07-05T12:51:33;97168.25;;;20.22
70435;BMP280;57876;47.792;12.960;2022-07-05T12:53:58;97163.50;;;20.22
70435;BMP280;57876;47.792;12.960;2022-07-05T12:56:47;97166.25;;;20.22
70435;BMP280;57876;47.792;12.960;2022-07-05T12:59:29;97171.75;;;20.22
70435;BMP280;57876;47.792;12.960;2022-07-05T13:01:54;97172.47;;;20.23
70435;BMP280;57876;47.792;12.960;2022-07-05T13:04:18;97173.19;;;20.23
70435;BMP280;57876;47.792;12.960;2022-07-05T13:06:53;97167.69;;;20.23
70435;BMP280;57876;47.792;12.960;2022-07-05T13:14:33;97174.47;;;20.22
70435;BMP280;57876;47.792;12.960;2022-07-05T13:16:58;97178.69;;;20.23
70435;BMP280;57876;47.792;12.960;2022-07-05T13:19:22;97187.47;;;20.22
70435;BMP280;57876;47.792;12.960;2022-07-05T13:21:46;97185.47;;;20.22
70435;BMP280;57876;47.792;12.960;2022-07-05T13:24:11;97174.47;;;20.22
70435;BMP280;57876;47.792;12.960;2022-07-05T13:26:35;97184.75;;;20.22
70435;BMP280;57876;47.792;12.960;2022-07-05T13:29:00;97184.19;;;20.23
70435;BMP280;57876;47.792;12.960;2022-07-05T13:31:24;97194.47;;;20.23
70435;BMP280;57876;47.792;12.960;2022-07-05T13:33:48;97175.22;;;20.23
70435;BMP280;57876;47.792;12.960;2022-07-05T13:36:13;97188.22;;;20.22
70435;BMP280;57876;47.792;12.960;2022-07-05T13:38:37;97185.47;;;20.22
70435;BMP280;57876;47.792;12.960;2022-07-05T13:41:02;97184.75;;;20.22
70435;BMP280;57876;47.792;12.960;2022-07-05T13:43:26;97184.75;;;20.22
70435;BMP280;57876;47.792;12.960;2022-07-05T13:45:50;97173.06;;;20.21
70435;BMP280;57876;47.792;12.960;2022-07-05T13:48:15;97169.00;;;20.22
70435;BMP280;57876;47.792;12.960;2022-07-05T13:50:39;97177.97;;;20.23
70435;BMP280;57876;47.792;12.960;2022-07-05T13:53:04;97166.25;;;20.22
70435;BMP280;57876;47.792;12.960;2022-07-05T13:55:28;97162.75;;;20.22
70435;BMP280;57876;47.792;12.960;2022-07-05T13:57:53;97162.19;;;20.23
70435;BMP280;57876;47.792;12.960;2022-07-05T14:00:17;97164.94;;;20.23
70435;BMP280;57876;47.792;12.960;2022-07-05T14:02:45;97165.69;;;20.24
70435;BMP280;57876;47.792;12.960;2022-07-05T14:05:09;97164.25;;;20.23
70435;BMP280;57876;47.792;12.960;2022-07-05T14:07:34;97173.94;;;20.24
70435;BMP280;57876;47.792;12.960;2022-07-05T14:09:58;97169.72;;;20.23